Time;durP1;ratioP1;P1;durP2;ratioP2;P2;SDS_P1;SDS_P2;PMS_P1;PMS_P2;Temp;Humidity;BMP_temperature;BMP_pressure;BME280_temperature;BME280_humidity;BME280_pressure;Samples;Min_cycle;Max_cycle;Signal;HPM_P1;HPM_P2
2022/03/08 00:02:19;;;;;;;5.03;1.00;;;19.10;52.60;;;;;;4545520;31;20185;-63
2022/03/08 00:04:45;;;;;;;4.00;1.13;;;19.10;52.60;;;;;;4546877;31;20162;-63
2022/03/08 00:07:12;;;;;;;4.38;1.20;;;19.10;52.60;;;;;;4545759;31;20618;-63
2022/03/08 00:09:38;;;;;;;3.50;1.00;;;19.10;52.60;;;;;;4546578;31;20143;-63
2022/03/08 00:12:04;;;;;;;2.78;0.98;;;19.10;52.70;;;;;;4545909;31;20135;-63
2022/03/08 00:14:32;;;;;;;3.72;1.10;;;19.00;52.60;;;;;;4546013;31;20132;-63
2022/03/08 00:16:57;;;;;;;3.38;1.25;;;19.00;52.60;;;;;;4546359;31;20137;-63
2022/03/08 00:19:23;;;;;;;2.55;0.93;;;19.00;52.60;;;;;;4545516;31;20135;-63
2022/03/08 00:21:49;;;;;;;3.28;1.30;;;19.00;52.60;;;;;;4546361;31;20134;-63
2022/03/08 00:24:16;;;;;;;3.65;0.90;;;19.00;52.60;;;;;;4545460;31;20123;-63
2022/03/08 00:26:43;;;;;;;3.13;1.10;;;19.00;52.60;;;;;;4546354;31;20631;-63
2022/03/08 00:29:09;;;;;;;3.95;1.10;;;19.00;52.60;;;;;;4545567;31;20138;-63
2022/03/08 00:31:35;;;;;;;2.90;0.80;;;18.90;52.50;;;;;;4531805;31;20147;-63
2022/03/08 00:34:01;;;;;;;4.65;0.80;;;18.90;52.50;;;;;;4545686;31;20138;-63
2022/03/08 00:36:28;;;;;;;2.45;1.00;;;18.90;52.50;;;;;;4545283;31;20127;-63
2022/03/08 00:38:54;;;;;;;3.30;1.10;;;18.90;52.50;;;;;;4546138;31;20135;-63
2022/03/08 00:41:20;;;;;;;1.83;0.65;;;18.90;52.50;;;;;;4544397;31;20139;-63
2022/03/08 00:43:46;;;;;;;5.00;0.85;;;18.90;53.40;;;;;;4544291;31;20154;-62
2022/03/08 00:46:15;;;;;;;4.15;1.27;;;18.80;52.50;;;;;;4544405;31;20132;-63
2022/03/08 00:48:42;;;;;;;2.17;0.80;;;18.90;52.50;;;;;;4544862;31;20293;-63
2022/03/08 00:51:08;;;;;;;3.15;0.93;;;18.80;52.50;;;;;;4545385;31;20676;-63
2022/03/08 00:53:34;;;;;;;4.22;0.85;;;18.80;52.50;;;;;;4544536;31;20146;-63
2022/03/08 00:56:00;;;;;;;2.40;1.00;;;18.80;52.40;;;;;;4531405;31;20119;-63
2022/03/08 00:58:26;;;;;;;1.92;0.90;;;18.80;53.40;;;;;;4544086;31;20274;-63
2022/03/08 01:00:51;;;;;;;2.63;0.80;;;18.80;52.50;;;;;;4545208;31;20123;-63
2022/03/08 01:03:17;;;;;;;3.05;1.10;;;18.80;52.50;;;;;;4544524;31;20131;-63
2022/03/08 01:05:43;;;;;;;2.33;0.85;;;18.80;52.50;;;;;;4544958;31;20143;-63
2022/03/08 01:08:09;;;;;;;2.00;0.80;;;18.70;52.40;;;;;;4544775;31;20108;-63
2022/03/08 01:10:36;;;;;;;3.80;1.10;;;18.70;52.40;;;;;;4544418;31;20148;-63
2022/03/08 01:13:03;;;;;;;3.63;1.00;;;18.70;52.40;;;;;;4545549;31;20136;-63
2022/03/08 01:15:29;;;;;;;2.17;0.82;;;18.70;52.40;;;;;;4544123;31;20127;-63
2022/03/08 01:17:56;;;;;;;2.55;0.75;;;18.70;52.40;;;;;;4544959;31;20134;-63
2022/03/08 01:20:23;;;;;;;1.73;0.75;;;18.70;52.40;;;;;;4544174;31;20139;-63
2022/03/08 01:22:49;;;;;;;2.97;1.00;;;18.70;52.40;;;;;;4544756;31;20123;-63
2022/03/08 01:25:17;;;;;;;1.67;0.80;;;18.60;52.30;;;;;;4544718;31;20111;-62
2022/03/08 01:27:43;;;;;;;2.63;0.88;;;18.60;52.40;;;;;;4544351;31;20114;-63
2022/03/08 01:30:12;;;;;;;1.30;0.70;;;18.60;52.40;;;;;;4545226;31;20131;-63
2022/03/08 01:32:39;;;;;;;3.28;0.93;;;18.60;52.30;;;;;;4544106;31;20189;-63
2022/03/08 01:35:06;;;;;;;1.67;0.80;;;18.60;52.30;;;;;;4545108;31;20264;-63
2022/03/08 01:37:32;;;;;;;2.70;0.90;;;18.60;52.30;;;;;;4544212;31;20662;-63
2022/03/08 01:39:57;;;;;;;2.10;0.95;;;18.60;53.20;;;;;;4544785;31;20111;-63
2022/03/08 01:42:25;;;;;;;1.90;0.85;;;18.60;52.30;;;;;;4544490;31;20132;-63
2022/03/08 01:44:51;;;;;;;1.85;0.70;;;18.60;52.30;;;;;;4543974;31;20156;-63
2022/03/08 01:47:19;;;;;;;1.33;0.70;;;18.50;52.30;;;;;;4546662;31;20192;-62
2022/03/08 01:49:46;;;;;;;1.63;0.70;;;18.50;52.30;;;;;;4547126;31;20143;-63
2022/03/08 01:52:12;;;;;;;3.10;0.80;;;18.50;52.30;;;;;;4548253;31;20304;-63
2022/03/08 01:54:38;;;;;;;2.75;0.80;;;18.50;52.30;;;;;;4547329;31;20208;-63
2022/03/08 01:57:05;;;;;;;3.25;1.02;;;18.50;52.30;;;;;;4547933;31;20119;-63
2022/03/08 01:59:31;;;;;;;1.75;0.80;;;18.50;52.20;;;;;;4548336;31;20104;-63
2022/03/08 02:01:57;;;;;;;1.42;0.70;;;18.50;52.30;;;;;;4547997;31;20676;-63
2022/03/08 02:04:23;;;;;;;0.95;0.60;;;18.40;52.20;;;;;;4548558;31;20131;-63
2022/03/08 02:06:49;;;;;;;2.75;0.70;;;18.50;52.30;;;;;;4547570;31;20511;-63
2022/03/08 02:09:15;;;;;;;2.15;0.88;;;18.40;52.20;;;;;;4548286;31;20135;-63
2022/03/08 02:11:42;;;;;;;1.63;0.63;;;18.40;52.20;;;;;;4547095;31;20185;-63
2022/03/08 02:14:08;;;;;;;1.40;0.52;;;18.40;52.20;;;;;;4548299;31;20274;-63
2022/03/08 02:16:34;;;;;;;1.50;0.70;;;18.40;52.20;;;;;;4547954;31;20115;-63
2022/03/08 02:18:59;;;;;;;1.23;0.68;;;18.40;52.20;;;;;;4547573;31;20163;-63
2022/03/08 02:21:26;;;;;;;1.25;0.60;;;18.40;52.20;;;;;;4548195;31;20216;-63
2022/03/08 02:23:52;;;;;;;1.20;0.60;;;18.40;52.20;;;;;;4547421;31;20141;-63
2022/03/08 02:26:21;;;;;;;1.90;0.80;;;18.40;52.20;;;;;;4548662;31;20146;-63
2022/03/08 02:28:47;;;;;;;1.55;0.70;;;18.30;52.10;;;;;;4547343;31;20127;-63
2022/03/08 02:31:17;;;;;;;1.20;0.60;;;18.40;52.20;;;;;;4547912;31;20142;-63
2022/03/08 02:33:44;;;;;;;1.42;0.80;;;18.30;53.10;;;;;;4548027;31;20135;-62
2022/03/08 02:36:10;;;;;;;2.05;0.90;;;18.30;52.20;;;;;;4532993;31;20138;-62
2022/03/08 02:38:37;;;;;;;1.70;0.70;;;18.30;52.20;;;;;;4548028;31;20816;-62
2022/03/08 02:41:02;;;;;;;1.73;0.70;;;18.30;52.20;;;;;;4546986;31;20143;-63
2022/03/08 02:43:28;;;;;;;1.80;0.70;;;18.20;52.10;;;;;;4547892;31;20123;-63
2022/03/08 02:45:54;;;;;;;1.92;0.75;;;18.20;52.10;;;;;;4547038;31;20149;-63
2022/03/08 02:48:25;;;;;;;2.35;1.00;;;18.20;52.10;;;;;;4547492;31;20145;-62
2022/03/08 02:50:51;;;;;;;1.27;0.73;;;18.20;52.10;;;;;;4547648;31;20204;-63
2022/03/08 02:53:17;;;;;;;2.45;0.50;;;18.20;52.10;;;;;;4547049;31;20257;-63
2022/03/08 02:55:43;;;;;;;1.90;0.80;;;18.20;52.10;;;;;;4548064;31;20124;-63
2022/03/08 02:58:09;;;;;;;1.23;0.80;;;18.20;52.10;;;;;;4546246;31;20192;-63
2022/03/08 03:00:35;;;;;;;0.70;0.50;;;18.20;52.10;;;;;;4547801;31;20147;-62
2022/03/08 03:03:02;;;;;;;1.30;0.43;;;18.20;52.10;;;;;;4546871;31;20134;-63
2022/03/08 03:05:28;;;;;;;1.33;0.68;;;18.20;52.10;;;;;;4547547;31;20244;-62
2022/03/08 03:07:54;;;;;;;1.85;0.70;;;18.20;52.10;;;;;;4547275;31;20269;-63
2022/03/08 03:10:21;;;;;;;0.70;0.45;;;18.10;52.00;;;;;;4546934;31;20132;-63
2022/03/08 03:12:47;;;;;;;1.27;0.60;;;18.10;52.00;;;;;;4547769;31;20538;-63
2022/03/08 03:15:15;;;;;;;1.35;0.57;;;18.20;52.10;;;;;;4546445;31;20616;-63
2022/03/08 03:17:41;;;;;;;1.92;0.85;;;18.10;53.00;;;;;;4547485;31;20186;-63
2022/03/08 03:20:09;;;;;;;1.48;0.70;;;18.10;52.00;;;;;;4546456;31;20266;-63
2022/03/08 03:22:36;;;;;;;1.70;0.60;;;18.10;52.00;;;;;;4547090;31;20155;-63
2022/03/08 03:25:20;;;;;;;1.25;0.60;;;18.10;52.10;;;;;;4547001;31;20138;-63
2022/03/08 03:27:47;;;;;;;2.50;0.57;;;18.10;52.00;;;;;;4546550;31;20277;-63
2022/03/08 03:30:16;;;;;;;1.95;0.70;;;18.10;52.00;;;;;;4547398;31;20131;-63
2022/03/08 03:32:43;;;;;;;1.65;0.55;;;18.10;52.00;;;;;;4546221;31;20120;-63
2022/03/08 03:35:10;;;;;;;2.42;0.70;;;18.00;52.90;;;;;;4547254;31;20182;-63
2022/03/08 03:37:37;;;;;;;1.05;0.40;;;18.10;52.00;;;;;;4546651;31;20138;-63
2022/03/08 03:40:05;;;;;;;2.35;0.65;;;18.00;52.00;;;;;;4546824;31;20146;-63
2022/03/08 03:42:31;;;;;;;1.02;0.60;;;18.00;52.00;;;;;;4546827;31;20261;-63
2022/03/08 03:44:56;;;;;;;1.35;0.60;;;18.00;52.00;;;;;;4546099;31;20573;-63
2022/03/08 03:47:23;;;;;;;1.38;0.60;;;18.00;52.00;;;;;;4546986;31;20196;-63
2022/03/08 03:49:48;;;;;;;1.45;0.60;;;18.00;52.00;;;;;;4545652;31;20188;-63
2022/03/08 03:52:14;;;;;;;2.28;0.70;;;18.00;52.00;;;;;;4546332;31;20132;-63
2022/03/08 03:54:40;;;;;;;0.93;0.55;;;17.90;51.90;;;;;;4545692;31;20131;-63
2022/03/08 03:57:08;;;;;;;1.33;0.52;;;17.90;51.90;;;;;;4546011;31;20139;-63
2022/03/08 03:59:34;;;;;;;1.48;0.68;;;17.90;51.90;;;;;;4546013;31;20167;-62
2022/03/08 04:01:59;;;;;;;2.38;0.80;;;17.90;52.00;;;;;;4545333;31;20127;-63
2022/03/08 04:04:25;;;;;;;1.50;0.60;;;17.90;51.90;;;;;;4546349;31;20177;-63
2022/03/08 04:06:51;;;;;;;1.00;0.60;;;17.90;52.00;;;;;;4545193;31;20131;-62
2022/03/08 04:09:17;;;;;;;1.60;0.70;;;17.90;52.00;;;;;;4545268;31;20123;-63
2022/03/08 04:11:43;;;;;;;1.33;0.47;;;17.80;51.90;;;;;;4545331;31;20116;-63
2022/03/08 04:14:09;;;;;;;1.90;0.60;;;17.90;52.00;;;;;;4545891;31;20130;-63
2022/03/08 04:16:35;;;;;;;0.98;0.70;;;17.80;51.90;;;;;;4545547;31;20285;-63
2022/03/08 04:19:00;;;;;;;1.02;0.60;;;17.80;51.90;;;;;;4545024;31;20119;-63
2022/03/08 04:21:26;;;;;;;2.45;0.65;;;17.80;51.90;;;;;;4545988;31;20207;-63
2022/03/08 04:23:52;;;;;;;0.63;0.40;;;17.80;51.90;;;;;;4544726;31;20496;-63
2022/03/08 04:26:18;;;;;;;1.15;0.50;;;17.80;51.90;;;;;;4545901;31;20174;-63
2022/03/08 04:28:44;;;;;;;1.33;0.63;;;17.80;51.90;;;;;;4544942;31;20130;-63
2022/03/08 04:31:09;;;;;;;0.75;0.50;;;17.80;51.90;;;;;;4545779;31;20126;-63
2022/03/08 04:33:35;;;;;;;1.35;0.70;;;17.80;51.90;;;;;;4545224;31;20173;-63
2022/03/08 04:36:03;;;;;;;1.23;0.68;;;17.70;51.80;;;;;;4545135;31;20124;-63
2022/03/08 04:38:28;;;;;;;2.08;0.73;;;17.70;51.80;;;;;;4545796;31;20127;-63
2022/03/08 04:40:54;;;;;;;0.60;0.50;;;17.80;51.90;;;;;;4544387;31;20201;-63
2022/03/08 04:43:20;;;;;;;1.75;0.85;;;17.70;51.90;;;;;;4545633;31;20188;-62
2022/03/08 04:45:49;;;;;;;0.93;0.60;;;17.70;51.90;;;;;;4544475;31;20139;-63
2022/03/08 04:48:16;;;;;;;1.30;0.68;;;17.70;51.90;;;;;;4545119;31;20138;-63
2022/03/08 04:50:42;;;;;;;1.45;0.52;;;17.70;51.90;;;;;;4545560;31;20128;-63
2022/03/08 04:53:08;;;;;;;1.30;0.57;;;17.70;51.90;;;;;;4545468;31;20142;-62
2022/03/08 04:55:33;;;;;;;1.08;0.70;;;17.70;52.00;;;;;;4546198;31;20123;-62
2022/03/08 04:57:59;;;;;;;0.93;0.75;;;17.70;51.90;;;;;;4544981;31;20139;-62
2022/03/08 05:00:25;;;;;;;0.93;0.75;;;17.60;51.90;;;;;;4546081;31;20200;-63
2022/03/08 05:02:51;;;;;;;0.80;0.70;;;17.60;51.90;;;;;;4530461;31;20251;-63
2022/03/08 05:05:17;;;;;;;0.88;0.70;;;17.60;51.90;;;;;;4545793;31;20131;-63
2022/03/08 05:07:42;;;;;;;1.38;0.70;;;17.60;51.90;;;;;;4545305;31;20531;-63
2022/03/08 05:10:11;;;;;;;0.98;0.50;;;17.60;51.90;;;;;;4545456;31;20174;-63
2022/03/08 05:12:38;;;;;;;1.30;0.63;;;17.60;51.90;;;;;;4545751;31;20212;-63
2022/03/08 05:15:05;;;;;;;1.38;0.70;;;17.60;52.00;;;;;;4544681;31;20164;-63
2022/03/08 05:17:32;;;;;;;1.17;0.65;;;17.60;52.00;;;;;;4545750;31;20166;-63
2022/03/08 05:19:58;;;;;;;0.90;0.60;;;17.50;51.90;;;;;;4544757;31;20189;-63
2022/03/08 05:22:24;;;;;;;1.90;0.70;;;17.50;51.90;;;;;;4545482;31;20597;-63
2022/03/08 05:24:50;;;;;;;1.13;0.70;;;17.50;51.90;;;;;;4545025;31;20224;-63
2022/03/08 05:27:16;;;;;;;0.95;0.50;;;17.50;51.90;;;;;;4545120;31;20120;-63
2022/03/08 05:29:42;;;;;;;1.10;0.65;;;17.50;52.00;;;;;;4531165;31;20193;-63
2022/03/08 05:32:08;;;;;;;0.40;0.40;;;17.50;52.00;;;;;;4544671;31;20144;-63
2022/03/08 05:34:34;;;;;;;1.15;0.60;;;17.50;52.00;;;;;;4545884;31;20134;-63
2022/03/08 05:37:01;;;;;;;1.38;0.63;;;17.50;52.00;;;;;;4544572;31;20128;-63
2022/03/08 05:39:27;;;;;;;1.73;0.70;;;17.50;52.00;;;;;;4545476;31;20120;-63
2022/03/08 05:41:53;;;;;;;1.52;0.70;;;17.40;51.90;;;;;;4544726;31;20116;-62
2022/03/08 05:44:18;;;;;;;0.98;0.52;;;17.40;51.90;;;;;;4545148;31;20274;-62
2022/03/08 05:46:44;;;;;;;1.13;0.70;;;17.40;51.90;;;;;;4530644;31;20127;-62
2022/03/08 05:49:10;;;;;;;1.05;0.60;;;17.40;52.90;;;;;;4544570;31;20142;-63
2022/03/08 05:51:37;;;;;;;1.00;0.80;;;17.40;51.90;;;;;;4545609;31;20119;-61
2022/03/08 05:54:03;;;;;;;1.23;0.70;;;17.40;52.00;;;;;;4544420;31;20139;-62
2022/03/08 05:56:29;;;;;;;1.40;0.60;;;17.40;51.90;;;;;;4545476;31;20128;-63
2022/03/08 05:58:55;;;;;;;0.85;0.65;;;17.40;51.90;;;;;;4544703;31;20246;-62
2022/03/08 06:01:21;;;;;;;1.73;0.80;;;17.40;52.00;;;;;;4544941;31;20120;-62
2022/03/08 06:03:47;;;;;;;0.90;0.63;;;17.40;52.00;;;;;;4545216;31;20143;-62
2022/03/08 06:06:12;;;;;;;1.48;0.90;;;17.40;52.00;;;;;;4544539;31;20176;-63
2022/03/08 06:08:39;;;;;;;0.85;0.60;;;17.40;52.00;;;;;;4545626;31;20133;-62
2022/03/08 06:11:05;;;;;;;1.42;0.68;;;17.30;51.90;;;;;;4544562;31;20171;-63
2022/03/08 06:13:30;;;;;;;1.50;0.90;;;17.30;51.90;;;;;;4545299;31;20265;-62
2022/03/08 06:15:56;;;;;;;0.85;0.63;;;17.30;52.00;;;;;;4544449;31;20163;-62
2022/03/08 06:18:22;;;;;;;1.00;0.60;;;17.30;52.00;;;;;;4544681;31;20143;-63
2022/03/08 06:20:48;;;;;;;0.93;0.63;;;17.20;51.90;;;;;;4544777;31;20116;-63
2022/03/08 06:23:14;;;;;;;1.40;0.70;;;17.30;52.00;;;;;;4544799;31;20262;-63
2022/03/08 06:25:40;;;;;;;0.95;0.60;;;17.30;52.00;;;;;;4545244;31;20116;-63
2022/03/08 06:28:06;;;;;;;0.95;0.60;;;17.30;52.00;;;;;;4529716;31;20186;-63
2022/03/08 06:30:33;;;;;;;1.40;0.60;;;17.30;52.00;;;;;;4545408;31;20136;-62
2022/03/08 06:32:58;;;;;;;0.93;0.60;;;17.30;52.00;;;;;;4545479;31;20735;-62
2022/03/08 06:35:24;;;;;;;0.98;0.60;;;17.20;52.00;;;;;;4533592;31;20131;-63
2022/03/08 06:37:51;;;;;;;1.17;0.60;;;17.20;52.00;;;;;;4547696;31;20151;-63
2022/03/08 06:40:17;;;;;;;1.30;0.70;;;17.20;52.00;;;;;;4547365;31;20132;-63
2022/03/08 06:42:43;;;;;;;1.20;0.80;;;17.20;52.00;;;;;;4548191;31;20182;-62
2022/03/08 06:45:10;;;;;;;1.55;0.80;;;17.20;52.00;;;;;;4546837;31;20604;-63
2022/03/08 06:47:38;;;;;;;1.00;0.85;;;17.20;52.10;;;;;;4547952;31;20151;-63
2022/03/08 06:50:06;;;;;;;0.77;0.60;;;17.20;52.00;;;;;;4547079;31;20281;-62
2022/03/08 06:52:32;;;;;;;0.82;0.75;;;17.10;52.00;;;;;;4547696;31;20144;-62
2022/03/08 06:54:58;;;;;;;0.60;0.50;;;17.10;52.00;;;;;;4547459;31;20124;-63
2022/03/08 06:57:24;;;;;;;1.33;0.70;;;17.10;52.00;;;;;;4532785;31;20142;-63
2022/03/08 06:59:50;;;;;;;1.38;0.60;;;17.10;52.00;;;;;;4547820;31;20285;-62
2022/03/08 07:02:16;;;;;;;2.88;0.60;;;17.10;52.00;;;;;;4546700;31;20228;-63
2022/03/08 07:04:42;;;;;;;0.77;0.65;;;17.10;52.00;;;;;;4548023;31;20208;-62
2022/03/08 07:07:08;;;;;;;1.02;0.60;;;17.10;52.00;;;;;;4546566;31;20265;-63
2022/03/08 07:09:34;;;;;;;0.85;0.50;;;17.10;52.00;;;;;;4547710;31;20120;-63
2022/03/08 07:12:00;;;;;;;1.17;0.70;;;17.10;52.00;;;;;;4546822;31;20146;-63
2022/03/08 07:14:26;;;;;;;1.25;0.80;;;17.10;52.00;;;;;;4547052;31;20136;-63
2022/03/08 07:16:52;;;;;;;0.93;0.73;;;17.10;52.00;;;;;;4547538;31;20184;-62
2022/03/08 07:19:18;;;;;;;0.85;0.70;;;17.10;52.00;;;;;;4546380;31;20127;-63
2022/03/08 07:21:47;;;;;;;1.67;0.82;;;17.10;52.00;;;;;;4547356;31;20132;-63
2022/03/08 07:24:14;;;;;;;1.40;0.70;;;17.10;52.00;;;;;;4546580;31;20128;-63
2022/03/08 07:26:40;;;;;;;1.10;0.70;;;17.00;51.90;;;;;;4547334;31;20124;-63
2022/03/08 07:29:06;;;;;;;1.55;0.70;;;17.00;52.00;;;;;;4546732;31;20112;-63
2022/03/08 07:31:32;;;;;;;1.48;0.88;;;17.00;52.00;;;;;;4546969;31;20303;-62
2022/03/08 07:33:59;;;;;;;1.23;0.70;;;17.00;52.00;;;;;;4547222;31;20186;-62
2022/03/08 07:36:26;;;;;;;3.75;1.33;;;17.00;52.00;;;;;;4531945;31;20198;-61
2022/03/08 07:38:52;;;;;;;4.40;3.13;;;17.00;51.80;;;;;;4547429;31;20555;-63
2022/03/08 07:41:18;;;;;;;3.22;2.42;;;17.00;51.00;;;;;;4546121;31;20214;-62
2022/03/08 07:43:44;;;;;;;2.80;2.22;;;17.00;50.60;;;;;;4546799;31;20108;-62
2022/03/08 07:46:10;;;;;;;3.47;2.55;;;17.00;50.60;;;;;;4546091;31;20138;-62
2022/03/08 07:48:37;;;;;;;4.30;2.40;;;17.00;50.50;;;;;;4546501;31;20572;-62
2022/03/08 07:51:03;;;;;;;4.70;2.67;;;17.10;50.70;;;;;;4546871;31;20549;-62
2022/03/08 07:53:29;;;;;;;3.75;2.47;;;17.10;50.50;;;;;;4546020;31;20176;-62
2022/03/08 07:55:54;;;;;;;3.35;2.35;;;17.10;50.30;;;;;;4547163;31;20132;-62
2022/03/08 07:58:21;;;;;;;3.63;2.00;;;17.20;50.30;;;;;;4545920;31;20143;-62
2022/03/08 08:00:47;;;;;;;2.92;1.90;;;17.30;50.20;;;;;;4546846;31;20246;-61
2022/03/08 08:03:13;;;;;;;2.17;1.75;;;17.40;50.10;;;;;;4546000;31;20116;-62
2022/03/08 08:05:39;;;;;;;2.05;1.70;;;17.50;49.90;;;;;;4546562;31;20146;-62
2022/03/08 08:08:06;;;;;;;2.25;1.60;;;17.70;49.70;;;;;;4546587;31;20134;-62
2022/03/08 08:10:33;;;;;;;3.85;1.90;;;17.80;49.40;;;;;;4531568;31;20167;-61
2022/03/08 08:12:59;;;;;;;3.33;1.60;;;18.00;49.10;;;;;;4546979;31;20127;-62
2022/03/08 08:15:25;;;;;;;2.55;1.30;;;18.10;48.90;;;;;;4545665;31;20200;-63
2022/03/08 08:17:51;;;;;;;3.30;1.70;;;18.20;48.70;;;;;;4546240;31;20139;-63
2022/03/08 08:20:18;;;;;;;8.15;1.45;;;18.30;48.60;;;;;;4545844;31;20132;-62
2022/03/08 08:22:44;;;;;;;1.77;1.23;;;18.40;48.50;;;;;;4546160;31;20453;-63
2022/03/08 08:25:13;;;;;;;1.90;1.10;;;18.60;48.40;;;;;;4546202;31;20189;-62
2022/03/08 08:27:41;;;;;;;3.53;0.90;;;18.70;48.20;;;;;;4545780;31;20144;-62
2022/03/08 08:30:11;;;;;;;4.78;0.95;;;18.80;48.10;;;;;;4546427;31;20482;-62
2022/03/08 08:32:39;;;;;;;1.42;0.90;;;18.90;48.00;;;;;;4544754;31;20192;-63
2022/03/08 08:35:05;;;;;;;1.48;0.70;;;19.00;47.70;;;;;;4530403;31;20123;-64
2022/03/08 08:37:31;;;;;;;1.20;0.95;;;19.20;47.60;;;;;;4544089;31;20146;-65
2022/03/08 08:39:57;;;;;;;2.53;1.13;;;19.30;47.40;;;;;;4530222;31;20643;-63
2022/03/08 08:42:23;;;;;;;1.42;0.80;;;19.40;47.20;;;;;;4544980;31;20107;-64
2022/03/08 08:44:49;;;;;;;1.38;0.80;;;19.50;47.10;;;;;;4544057;31;20135;-64
2022/03/08 08:47:15;;;;;;;2.17;0.85;;;19.60;46.80;;;;;;4530462;31;20327;-63
2022/03/08 08:49:41;;;;;;;3.33;0.98;;;19.70;46.60;;;;;;4543850;31;20254;-64
2022/03/08 08:52:07;;;;;;;2.15;1.08;;;19.90;46.40;;;;;;4544806;31;20120;-64
2022/03/08 08:54:33;;;;;;;5.10;1.33;;;20.00;46.20;;;;;;4544059;31;20181;-63
2022/03/08 08:56:58;;;;;;;4.38;1.40;;;20.10;45.50;;;;;;4544652;31;20127;-63
2022/03/08 08:59:24;;;;;;;1.38;1.02;;;20.20;45.10;;;;;;4545154;31;20123;-63
2022/03/08 09:01:50;;;;;;;2.92;1.00;;;20.30;44.80;;;;;;4544415;31;20128;-62
2022/03/08 09:04:16;;;;;;;1.77;1.00;;;20.40;44.70;;;;;;4545341;31;20249;-62
2022/03/08 09:06:42;;;;;;;1.73;0.90;;;20.50;44.60;;;;;;4544220;31;20115;-63
2022/03/08 09:09:09;;;;;;;1.42;0.98;;;20.60;44.60;;;;;;4545322;31;20127;-62
2022/03/08 09:11:36;;;;;;;3.05;1.02;;;20.60;44.50;;;;;;4544288;31;20553;-62
2022/03/08 09:14:02;;;;;;;3.97;1.20;;;20.60;44.50;;;;;;4545073;31;20150;-63
2022/03/08 09:16:28;;;;;;;1.13;0.90;;;20.70;44.60;;;;;;4544718;31;20135;-62
2022/03/08 09:18:54;;;;;;;2.15;0.90;;;20.70;44.50;;;;;;4544655;31;20142;-63
2022/03/08 09:21:20;;;;;;;1.63;0.60;;;20.70;44.60;;;;;;4545366;31;20123;-63
2022/03/08 09:23:46;;;;;;;5.57;0.90;;;20.70;44.60;;;;;;4544058;31;20629;-64
2022/03/08 09:26:12;;;;;;;2.13;0.70;;;20.70;44.60;;;;;;4545259;31;20123;-64
2022/03/08 09:28:38;;;;;;;1.65;0.85;;;20.70;44.70;;;;;;4544528;31;20120;-63
2022/03/08 09:31:04;;;;;;;3.33;1.02;;;20.60;44.70;;;;;;4544776;31;20137;-64
2022/03/08 09:33:30;;;;;;;1.63;0.70;;;20.60;44.70;;;;;;4544647;31;20537;-64
2022/03/08 09:35:56;;;;;;;1.00;0.60;;;20.60;44.80;;;;;;4544470;31;20134;-65
2022/03/08 09:38:22;;;;;;;6.72;0.90;;;20.60;44.80;;;;;;4544979;31;20115;-63
2022/03/08 09:40:51;;;;;;;2.03;0.95;;;20.60;44.70;;;;;;4543919;31;20250;-64
2022/03/08 09:43:18;;;;;;;2.60;0.88;;;20.70;44.80;;;;;;4544801;31;20937;-64
2022/03/08 09:45:44;;;;;;;2.75;0.70;;;20.70;44.80;;;;;;4544383;31;20243;-63
2022/03/08 09:48:10;;;;;;;4.13;1.08;;;20.70;44.70;;;;;;4545143;31;20303;-63
2022/03/08 09:50:36;;;;;;;2.15;0.93;;;20.80;44.70;;;;;;4545164;31;20271;-63
2022/03/08 09:53:03;;;;;;;2.13;1.02;;;20.80;44.60;;;;;;4544907;31;20245;-63
2022/03/08 09:55:29;;;;;;;1.85;1.00;;;20.80;44.60;;;;;;4545476;31;20123;-63
2022/03/08 09:57:56;;;;;;;2.40;0.80;;;20.80;44.50;;;;;;4544554;31;20148;-63
2022/03/08 10:00:24;;;;;;;1.50;0.75;;;20.80;44.40;;;;;;4545486;31;20146;-63
2022/03/08 10:02:57;;;;;;;1.58;0.80;;;20.80;44.40;;;;;;4544676;31;20664;-63
2022/03/08 10:05:37;;;;;;;1.73;0.93;;;20.80;44.40;;;;;;4545236;31;20193;-63
2022/03/08 10:08:21;;;;;;;1.10;0.77;;;20.80;44.30;;;;;;4546389;31;20112;-63
2022/03/08 10:11:00;;;;;;;1.30;0.80;;;20.90;44.30;;;;;;4547647;31;20254;-63
2022/03/08 10:13:40;;;;;;;1.27;1.00;;;20.90;45.10;;;;;;4548411;31;20123;-64
2022/03/08 10:16:28;;;;;;;2.05;0.88;;;20.90;44.00;;;;;;4547337;31;20689;-62
2022/03/08 10:19:03;;;;;;;5.75;1.10;;;20.90;44.00;;;;;;4546484;31;20135;-63
2022/03/08 10:21:38;;;;;;;3.92;0.93;;;20.90;44.00;;;;;;4548745;31;20261;-63
2022/03/08 10:24:25;;;;;;;6.85;1.67;;;20.80;44.20;;;;;;4547615;31;20194;-63
2022/03/08 10:26:59;;;;;;;3.55;1.80;;;20.80;43.80;;;;;;4548520;31;20131;-63
2022/03/08 10:29:31;;;;;;;3.65;2.10;;;20.80;42.60;;;;;;4548158;31;20112;-63
2022/03/08 10:32:09;;;;;;;4.72;2.30;;;20.70;41.70;;;;;;4546699;31;20648;-62
2022/03/08 10:34:39;;;;;;;3.53;2.40;;;20.70;40.60;;;;;;4546795;31;20163;-63
2022/03/08 10:37:17;;;;;;;4.70;2.17;;;20.60;39.60;;;;;;4531334;31;20216;-62
2022/03/08 10:39:54;;;;;;;3.55;2.38;;;20.60;38.90;;;;;;4547205;31;20162;-63
2022/03/08 10:42:29;;;;;;;7.22;2.67;;;20.50;38.10;;;;;;4546816;31;20132;-64
2022/03/08 10:45:08;;;;;;;5.00;2.30;;;20.50;37.40;;;;;;4546504;31;20143;-63
2022/03/08 10:47:38;;;;;;;11.23;2.10;;;20.50;37.00;;;;;;4547709;31;20139;-64
2022/03/08 10:50:05;;;;;;;3.20;1.52;;;20.50;37.10;;;;;;4546877;31;20128;-65
2022/03/08 10:52:33;;;;;;;5.55;1.67;;;20.60;37.40;;;;;;4547906;31;20180;-64
2022/03/08 10:55:12;;;;;;;7.00;1.30;;;20.60;37.70;;;;;;4547424;31;20131;-65
2022/03/08 10:57:40;;;;;;;2.33;1.20;;;20.70;38.10;;;;;;4546812;31;20285;-64
2022/03/08 11:00:11;;;;;;;6.13;1.25;;;20.70;38.30;;;;;;4548105;31;20139;-65
2022/03/08 11:02:49;;;;;;;2.88;1.27;;;20.80;38.40;;;;;;4546374;31;20253;-65
2022/03/08 11:05:17;;;;;;;24.67;1.38;;;20.90;38.80;;;;;;4547641;31;20269;-64
2022/03/08 11:07:43;;;;;;;12.23;1.40;;;20.90;38.90;;;;;;4532533;31;20183;-65
2022/03/08 11:10:11;;;;;;;5.57;1.10;;;20.90;40.00;;;;;;4532794;31;20115;-64
2022/03/08 11:12:38;;;;;;;10.10;1.10;;;20.90;39.20;;;;;;4547801;31;20220;-64
2022/03/08 11:15:06;;;;;;;8.65;1.10;;;20.90;39.40;;;;;;4546815;31;20187;-63
2022/03/08 11:17:35;;;;;;;3.75;1.10;;;20.80;39.40;;;;;;4547011;31;20143;-63
2022/03/08 11:20:06;;;;;;;9.80;1.30;;;20.80;39.70;;;;;;4546277;31;20128;-64
2022/03/08 11:22:33;;;;;;;10.80;1.02;;;20.70;40.00;;;;;;4547319;31;20138;-64
2022/03/08 11:24:59;;;;;;;6.10;0.98;;;20.70;40.20;;;;;;4547070;31;20240;-64
2022/03/08 11:27:26;;;;;;;5.13;1.00;;;20.70;40.40;;;;;;4547050;31;20211;-64
2022/03/08 11:29:52;;;;;;;6.72;1.10;;;20.70;40.50;;;;;;4547649;31;20135;-64
2022/03/08 11:32:27;;;;;;;4.88;0.93;;;20.70;40.50;;;;;;4531903;31;20204;-64
2022/03/08 11:35:10;;;;;;;3.53;0.80;;;20.70;40.60;;;;;;4546803;31;20186;-65
2022/03/08 11:37:39;;;;;;;3.05;0.75;;;20.80;40.60;;;;;;4546301;31;20183;-63
2022/03/08 11:40:17;;;;;;;4.78;0.80;;;20.80;40.70;;;;;;4545935;31;20156;-64
2022/03/08 11:42:46;;;;;;;2.63;0.98;;;20.80;40.80;;;;;;4532375;31;20141;-64
2022/03/08 11:45:24;;;;;;;3.95;1.00;;;20.90;40.90;;;;;;4546088;31;20193;-65
2022/03/08 11:48:04;;;;;;;6.18;1.00;;;20.90;41.10;;;;;;4547094;31;20270;-65
2022/03/08 11:50:44;;;;;;;3.78;0.80;;;20.90;41.10;;;;;;4546846;31;20135;-63
2022/03/08 11:53:16;;;;;;;3.25;0.93;;;20.90;41.30;;;;;;4546343;31;20194;-63
2022/03/08 11:55:47;;;;;;;6.65;0.90;;;20.80;41.30;;;;;;4547288;31;20153;-64
2022/03/08 11:58:20;;;;;;;5.85;0.98;;;20.80;41.50;;;;;;4531536;31;20158;-63
2022/03/08 12:00:49;;;;;;;2.72;1.00;;;20.90;41.50;;;;;;4546885;31;20699;-63
2022/03/08 12:03:37;;;;;;;2.97;0.95;;;20.80;41.50;;;;;;4545564;31;20184;-62
2022/03/08 12:06:06;;;;;;;5.18;1.13;;;20.80;41.30;;;;;;4545702;31;20159;-62
2022/03/08 12:08:42;;;;;;;3.42;1.08;;;20.80;41.20;;;;;;4546525;31;20147;-65
2022/03/08 12:11:37;;;;;;;16.33;1.23;;;20.80;41.00;;;;;;4546109;31;20140;-62
2022/03/08 12:14:24;;;;;;;3.88;0.80;;;20.80;40.90;;;;;;4530594;31;20124;-63
2022/03/08 12:16:52;;;;;;;7.22;0.90;;;20.80;40.90;;;;;;4546895;31;20196;-62
2022/03/08 12:19:21;;;;;;;7.20;1.20;;;20.80;40.70;;;;;;4545506;31;20131;-62
2022/03/08 12:21:55;;;;;;;3.30;1.13;;;20.80;40.60;;;;;;4546778;31;20180;-62
2022/03/08 12:24:21;;;;;;;6.80;2.00;;;20.80;40.70;;;;;;4545964;31;20147;-61
2022/03/08 12:27:02;;;;;;;2.47;1.50;;;20.70;39.90;;;;;;4532022;31;20128;-61
2022/03/08 12:29:36;;;;;;;2.67;1.70;;;20.60;38.70;;;;;;4546354;31;20131;-62
2022/03/08 12:32:05;;;;;;;5.03;1.60;;;20.50;38.70;;;;;;4545179;31;20142;-63
2022/03/08 12:34:38;;;;;;;4.57;2.10;;;20.40;39.10;;;;;;4546651;31;20196;-63
2022/03/08 12:37:10;;;;;;;3.45;2.25;;;20.30;38.90;;;;;;4545433;31;20115;-63
2022/03/08 12:39:45;;;;;;;3.23;2.13;;;20.10;38.80;;;;;;4546220;31;20135;-63
2022/03/08 12:42:24;;;;;;;2.92;2.03;;;19.90;39.00;;;;;;4531753;31;20609;-62
2022/03/08 12:45:00;;;;;;;4.45;2.45;;;19.90;39.30;;;;;;4545474;31;20150;-64
2022/03/08 12:47:28;;;;;;;2.90;1.85;;;19.70;39.80;;;;;;4546508;31;20143;-64
2022/03/08 12:49:54;;;;;;;4.93;1.98;;;19.60;40.50;;;;;;4530352;31;20119;-65